Time,TemperatureF,DewpointF,PressureIn,WindDirection,WindDirectionDegrees,WindSpeedMPH,WindSpeedGustMPH,Humidity,HourlyPrecipIn,Conditions,Clouds,dailyrainin,SolarRadiationWatts/m^2,SoftwareType,DateUTC
2013-07-26 11:00:00,83.0,51.0,-100.00,SE,143,1.0,3.0,33,-99.99,,,0.00,783.900024,,2013-07-26 18:00:00,
2013-07-26 11:52:00,83.0,51.0,-100.00,SE,143,1.0,3.0,33,-99.99,,,0.00,783.900024,,2013-07-26 18:52:00,
2013-07-26 13:00:00,92.0,41.0,-100.00,South,188,3.0,10.0,17,-99.99,,,0.00,954.169983,,2013-07-26 20:00:00,
2013-07-26 13:43:00,92.0,41.0,-100.00,South,188,3.0,10.0,17,-99.99,,,0.00,954.169983,,2013-07-26 20:43:00,
2013-07-26 13:53:00,92.0,41.0,-100.00,South,188,3.0,10.0,17,-99.99,,,0.00,954.169983,,2013-07-26 20:53:00,
2013-07-26 19:00:00,84.0,47.0,-100.00,SW,215,5.0,14.0,27,-99.99,,,0.00,259.869995,,2013-07-27 02:00:00,
2013-07-26 19:43:00,84.0,47.0,-100.00,SW,215,5.0,14.0,27,-99.99,,,0.00,259.869995,,2013-07-27 02:43:00,
2013-07-26 19:53:00,84.0,47.0,-100.00,SW,215,5.0,14.0,27,-99.99,,,0.00,259.869995,,2013-07-27 02:53:00,
2013-07-26 20:00:00,80.0,47.0,-100.00,SW,222,5.0,17.0,32,-99.99,,,0.00,49.970001,,2013-07-27 03:00:00,
2013-07-26 20:44:00,80.0,47.0,-100.00,SW,222,5.0,17.0,32,-99.99,,,0.00,49.970001,,2013-07-27 03:44:00,
2013-07-26 20:52:00,80.0,47.0,-100.00,SW,222,5.0,17.0,32,-99.99,,,0.00,49.970001,,2013-07-27 03:52:00,
2013-07-26 21:00:00,77.0,51.0,-100.00,SSW,197,3.0,12.0,40,-99.99,,,0.00,1.980000,,2013-07-27 04:00:00,
2013-07-26 21:43:00,77.0,51.0,-100.00,SSW,197,3.0,12.0,40,-99.99,,,0.00,1.980000,,2013-07-27 04:43:00,
2013-07-26 21:53:00,77.0,51.0,-100.00,SSW,197,3.0,12.0,40,-99.99,,,0.00,1.980000,,2013-07-27 04:53:00,
2013-07-26 22:00:00,75.0,51.0,-100.00,SW,222,4.0,15.0,43,-99.99,,,0.00,0.000000,,2013-07-27 05:00:00,
2013-07-26 22:43:00,75.0,51.0,-100.00,SW,222,4.0,15.0,43,-99.99,,,0.00,0.000000,,2013-07-27 05:43:00,
2013-07-26 22:52:00,75.0,51.0,-100.00,SW,222,4.0,15.0,43,-99.99,,,0.00,0.000000,,2013-07-27 05:52:00,
2013-07-26 23:00:00,73.0,49.0,-100.00,SW,217,7.0,24.0,42,-99.99,,,0.00,0.000000,,2013-07-27 06:00:00,
2013-07-26 23:43:00,73.0,49.0,-100.00,SW,217,7.0,24.0,42,-99.99,,,0.00,0.000000,,2013-07-27 06:43:00,
2013-07-26 23:52:00,73.0,49.0,-100.00,SW,217,7.0,24.0,42,-99.99,,,0.00,0.000000,,2013-07-27 06:52:00,